Time;durP1;ratioP1;P1;durP2;ratioP2;P2;SDS_P1;SDS_P2;PMS_P1;PMS_P2;Temp;Humidity;BMP_temperature;BMP_pressure;BME280_temperature;BME280_humidity;BME280_pressure;Samples;Min_cycle;Max_cycle;Signal;HPM_P1;HPM_P2
2024/04/22 00:01:20;;;;;;;7.70;6.50;;;8.00;99.90;;;;;;5464044;26;20242;-67
2024/04/22 00:03:45;;;;;;;7.07;5.93;;;7.90;99.90;;;;;;5467466;26;20606;-67
2024/04/22 00:06:11;;;;;;;7.97;6.97;;;7.90;99.90;;;;;;5457821;26;20871;-67
2024/04/22 00:08:36;;;;;;;7.03;6.33;;;7.90;99.90;;;;;;5458451;26;20343;-67
2024/04/22 00:11:02;;;;;;;7.97;6.27;;;8.00;99.90;;;;;;5466929;26;20344;-67
2024/04/22 00:13:28;;;;;;;10.00;6.70;;;7.90;99.90;;;;;;5469156;26;20276;-67
2024/04/22 00:15:54;;;;;;;6.03;5.40;;;7.90;99.90;;;;;;5470567;26;20460;-67
2024/04/22 00:18:20;;;;;;;7.27;6.00;;;7.90;99.90;;;;;;5470339;26;20269;-67
2024/04/22 00:20:46;;;;;;;7.43;6.50;;;7.90;99.90;;;;;;5467121;26;20243;-67
2024/04/22 00:23:12;;;;;;;7.17;6.47;;;7.90;99.90;;;;;;5472696;26;20456;-67
2024/04/22 00:25:37;;;;;;;6.60;5.93;;;7.80;99.90;;;;;;5457322;26;20295;-67
2024/04/22 00:28:03;;;;;;;9.50;6.27;;;7.80;99.90;;;;;;5449157;26;21269;-67
2024/04/22 00:30:29;;;;;;;7.80;6.50;;;7.80;99.90;;;;;;5460390;26;20223;-67
2024/04/22 00:32:54;;;;;;;8.00;6.07;;;7.80;99.90;;;;;;5463563;26;20327;-67
2024/04/22 00:35:20;;;;;;;7.17;5.87;;;7.80;99.90;;;;;;5456674;26;20387;-67
2024/04/22 00:37:45;;;;;;;7.90;5.83;;;7.80;99.90;;;;;;5473304;26;20223;-67
2024/04/22 00:40:11;;;;;;;5.77;5.20;;;7.80;99.90;;;;;;5468407;26;20829;-67
2024/04/22 00:42:42;;;;;;;6.70;5.67;;;7.80;99.90;;;;;;5462202;26;20281;-67
2024/04/22 00:45:12;;;;;;;7.83;6.03;;;7.80;99.90;;;;;;5467864;26;20273;-67
2024/04/22 00:47:37;;;;;;;6.33;5.63;;;7.70;99.90;;;;;;5463962;26;20467;-67
2024/04/22 00:50:06;;;;;;;8.30;6.03;;;7.70;99.90;;;;;;5474484;26;20594;-67
2024/04/22 00:52:31;;;;;;;6.70;5.20;;;7.70;99.90;;;;;;5463874;26;20344;-66
2024/04/22 00:54:57;;;;;;;7.77;5.80;;;7.80;99.90;;;;;;5467747;26;20475;-67
2024/04/22 00:57:23;;;;;;;7.60;5.83;;;7.70;99.90;;;;;;5480332;26;20284;-67
2024/04/22 00:59:48;;;;;;;7.07;6.37;;;7.70;99.90;;;;;;5468548;26;20369;-67
2024/04/22 01:02:14;;;;;;;6.60;5.53;;;7.70;99.90;;;;;;5465125;26;20694;-67
2024/04/22 01:04:42;;;;;;;7.63;6.23;;;7.70;99.90;;;;;;5460324;26;20234;-67
2024/04/22 01:07:08;;;;;;;7.50;5.90;;;7.70;99.90;;;;;;5469837;26;20250;-67
2024/04/22 01:09:33;;;;;;;6.77;5.93;;;7.70;99.90;;;;;;5465441;26;20471;-66
2024/04/22 01:11:59;;;;;;;7.77;5.60;;;7.70;99.90;;;;;;5472048;26;20535;-67
2024/04/22 01:14:25;;;;;;;7.00;5.77;;;7.70;99.90;;;;;;5469107;26;20297;-67
2024/04/22 01:16:54;;;;;;;6.70;6.00;;;7.70;99.90;;;;;;5451399;26;20257;-67
2024/04/22 01:19:21;;;;;;;7.43;5.80;;;7.70;99.90;;;;;;5470841;26;20310;-68
2024/04/22 01:21:46;;;;;;;8.07;5.80;;;7.60;99.90;;;;;;5458539;26;20521;-67
2024/04/22 01:24:14;;;;;;;6.03;5.20;;;7.60;99.90;;;;;;5478135;26;20464;-67
2024/04/22 01:26:40;;;;;;;7.73;5.43;;;7.60;99.90;;;;;;5459821;26;20836;-67
2024/04/22 01:29:05;;;;;;;6.13;5.50;;;7.60;99.90;;;;;;5460488;26;20520;-67
2024/04/22 01:31:33;;;;;;;7.40;6.43;;;7.60;99.90;;;;;;5465609;26;20235;-68
2024/04/22 01:33:58;;;;;;;8.23;5.60;;;7.60;99.90;;;;;;5472116;26;20310;-67
2024/04/22 01:36:24;;;;;;;6.70;6.00;;;7.60;99.90;;;;;;5465395;26;20590;-68
2024/04/22 01:38:50;;;;;;;6.70;5.80;;;7.60;99.90;;;;;;5464368;26;20571;-67
2024/04/22 01:41:16;;;;;;;7.50;5.90;;;7.50;99.90;;;;;;5463957;26;20235;-68
2024/04/22 01:43:41;;;;;;;6.87;6.00;;;7.50;99.90;;;;;;5466481;26;20983;-67
2024/04/22 01:46:07;;;;;;;5.90;5.07;;;7.50;99.90;;;;;;5462235;26;20570;-68
2024/04/22 01:48:33;;;;;;;8.23;5.57;;;7.50;99.90;;;;;;5455429;26;21124;-68
2024/04/22 01:50:58;;;;;;;6.83;5.90;;;7.50;99.90;;;;;;5465773;26;20235;-68
2024/04/22 01:53:24;;;;;;;6.07;5.10;;;7.50;99.90;;;;;;5463616;26;20334;-68
2024/04/22 01:55:53;;;;;;;7.00;5.10;;;7.50;99.90;;;;;;5469543;26;20264;-68
2024/04/22 01:58:18;;;;;;;7.27;5.40;;;7.40;99.90;;;;;;5462624;26;20234;-68
2024/04/22 02:00:44;;;;;;;7.13;5.60;;;7.40;99.90;;;;;;5465739;26;21387;-67
2024/04/22 02:03:09;;;;;;;9.23;6.63;;;7.40;99.90;;;;;;5460034;26;20257;-68
2024/04/22 02:05:38;;;;;;;5.97;5.33;;;7.40;99.90;;;;;;5455411;26;20239;-68
2024/04/22 02:08:04;;;;;;;6.73;5.83;;;7.40;99.90;;;;;;5462399;26;20764;-68
2024/04/22 02:10:29;;;;;;;8.47;5.80;;;7.40;99.90;;;;;;5463247;26;20515;-68
2024/04/22 02:12:55;;;;;;;6.73;6.03;;;7.40;99.90;;;;;;5467833;26;20817;-68
2024/04/22 02:15:20;;;;;;;9.63;5.97;;;7.30;99.90;;;;;;5461514;26;20708;-68
2024/04/22 02:17:46;;;;;;;7.47;6.23;;;7.30;99.90;;;;;;5469708;26;21774;-68
2024/04/22 02:20:12;;;;;;;6.70;5.30;;;7.30;99.90;;;;;;5467702;26;20239;-68
2024/04/22 02:22:37;;;;;;;6.53;5.63;;;7.30;99.90;;;;;;5467517;26;20231;-68
2024/04/22 02:25:03;;;;;;;9.17;5.83;;;7.20;99.90;;;;;;5467451;26;20548;-68
2024/04/22 02:27:29;;;;;;;8.67;6.73;;;7.20;99.90;;;;;;5471015;26;20235;-68
2024/04/22 02:29:55;;;;;;;6.30;5.40;;;7.20;99.90;;;;;;5466042;26;20415;-68
2024/04/22 02:32:20;;;;;;;6.67;5.13;;;7.20;99.90;;;;;;5463358;26;21062;-68
2024/04/22 02:34:46;;;;;;;7.40;5.67;;;7.20;99.90;;;;;;5464607;26;20246;-68
2024/04/22 02:37:12;;;;;;;6.63;5.70;;;7.20;99.90;;;;;;5461898;26;20231;-68
2024/04/22 02:39:37;;;;;;;6.80;5.47;;;7.20;99.90;;;;;;5464280;26;20883;-68
2024/04/22 02:42:03;;;;;;;6.97;6.27;;;7.20;99.90;;;;;;5465830;26;20631;-68
2024/04/22 02:44:29;;;;;;;7.60;5.60;;;7.20;99.90;;;;;;5465609;26;20340;-68
2024/04/22 02:46:54;;;;;;;8.10;6.20;;;7.10;99.90;;;;;;5462751;26;20304;-68
2024/04/22 02:49:20;;;;;;;6.70;5.77;;;7.10;99.90;;;;;;5456861;26;20284;-68
2024/04/22 02:51:45;;;;;;;7.50;6.00;;;7.10;99.90;;;;;;5463694;26;20642;-68
2024/04/22 02:54:11;;;;;;;7.00;5.90;;;7.10;99.90;;;;;;5458667;26;20284;-68
2024/04/22 02:56:36;;;;;;;8.80;5.93;;;7.10;99.90;;;;;;5463803;26;20289;-68
2024/04/22 02:59:02;;;;;;;7.60;6.20;;;7.00;99.90;;;;;;5463473;26;20282;-68
2024/04/22 03:01:31;;;;;;;7.40;6.27;;;7.00;99.90;;;;;;5468180;26;20258;-68
2024/04/22 03:03:57;;;;;;;10.23;5.90;;;7.00;99.90;;;;;;5459814;26;20254;-68
2024/04/22 03:06:23;;;;;;;7.33;5.83;;;7.00;99.90;;;;;;5464806;26;21072;-68
2024/04/22 03:08:50;;;;;;;8.60;6.33;;;7.00;99.90;;;;;;5468019;26;21108;-68
2024/04/22 03:11:16;;;;;;;8.17;6.97;;;6.90;99.90;;;;;;5463556;26;20268;-68
2024/04/22 03:13:41;;;;;;;8.60;5.53;;;6.90;99.90;;;;;;5464582;26;20585;-68
2024/04/22 03:16:07;;;;;;;6.00;5.40;;;6.90;99.90;;;;;;5454811;26;20745;-68
2024/04/22 03:18:32;;;;;;;9.50;6.37;;;6.90;99.90;;;;;;5458454;26;20242;-68
2024/04/22 03:20:58;;;;;;;10.90;6.40;;;6.90;99.90;;;;;;5458914;26;20623;-68
2024/04/22 03:23:24;;;;;;;7.73;5.53;;;6.90;99.90;;;;;;5461815;26;20223;-68
2024/04/22 03:25:49;;;;;;;7.37;5.63;;;6.80;99.90;;;;;;5464152;26;20266;-68
2024/04/22 03:28:15;;;;;;;8.67;6.03;;;6.80;99.90;;;;;;5459979;26;20843;-68
2024/04/22 03:30:40;;;;;;;6.77;5.40;;;6.70;99.90;;;;;;5466826;26;20223;-68
2024/04/22 03:33:06;;;;;;;8.83;6.50;;;6.70;99.90;;;;;;5466837;26;20299;-68
2024/04/22 03:35:33;;;;;;;7.50;5.83;;;6.70;99.90;;;;;;5479841;26;20274;-68
2024/04/22 03:37:59;;;;;;;8.83;5.90;;;6.60;99.90;;;;;;5462246;26;20227;-68
2024/04/22 03:40:24;;;;;;;7.40;5.80;;;6.60;99.90;;;;;;5468150;26;20476;-68
2024/04/22 03:42:50;;;;;;;10.53;6.40;;;6.60;99.90;;;;;;5468775;26;20569;-68
2024/04/22 03:45:15;;;;;;;7.67;5.73;;;6.50;99.90;;;;;;5475117;26;20634;-68
2024/04/22 03:50:25;;;;;;;8.73;6.00;;;6.50;99.90;;;;;;5468159;26;20673;-68
2024/04/22 03:52:52;;;;;;;7.77;5.53;;;6.40;99.90;;;;;;5465582;26;20545;-68
2024/04/22 03:55:17;;;;;;;9.90;6.40;;;6.40;99.90;;;;;;5473360;26;20238;-68
2024/04/22 03:57:43;;;;;;;7.23;6.13;;;6.30;99.90;;;;;;5471192;26;20474;-68
2024/04/22 04:00:09;;;;;;;8.60;6.37;;;6.30;99.90;;;;;;5469175;26;20285;-68
2024/04/22 04:02:35;;;;;;;6.70;6.07;;;6.20;99.90;;;;;;5463713;26;20457;-68
2024/04/22 04:05:00;;;;;;;7.57;6.50;;;6.20;99.90;;;;;;5460631;26;20495;-68
2024/04/22 04:07:26;;;;;;;7.47;5.90;;;6.10;99.90;;;;;;5463412;26;20244;-67
2024/04/22 04:09:52;;;;;;;10.17;6.97;;;6.10;99.90;;;;;;5461464;26;20223;-68
2024/04/22 04:12:17;;;;;;;10.10;6.00;;;6.00;99.90;;;;;;5464754;26;20981;-67
2024/04/22 04:14:43;;;;;;;9.47;8.10;;;6.00;99.90;;;;;;5463421;26;20339;-67
2024/04/22 04:17:08;;;;;;;8.50;6.57;;;5.90;99.90;;;;;;5462474;26;20284;-67
2024/04/22 04:19:34;;;;;;;8.23;6.70;;;5.90;99.90;;;;;;5467165;26;20269;-68
2024/04/22 04:22:00;;;;;;;7.90;5.93;;;5.80;99.90;;;;;;5460646;26;20892;-67
2024/04/22 04:24:25;;;;;;;8.50;6.00;;;5.80;99.90;;;;;;5465928;26;20782;-67
2024/04/22 04:26:52;;;;;;;8.77;6.27;;;5.80;99.90;;;;;;5462701;26;20476;-68
2024/04/22 04:29:17;;;;;;;9.30;7.03;;;5.80;99.90;;;;;;5466320;26;20284;-68
2024/04/22 04:31:43;;;;;;;6.70;5.70;;;5.70;99.90;;;;;;5465522;26;20463;-68
2024/04/22 04:34:09;;;;;;;7.73;5.47;;;5.70;99.90;;;;;;5469376;26;20240;-68
2024/04/22 04:36:34;;;;;;;8.37;6.27;;;5.70;99.90;;;;;;5462975;26;20305;-68
2024/04/22 04:39:00;;;;;;;8.60;6.33;;;5.60;99.90;;;;;;5463593;26;20618;-68
2024/04/22 04:41:26;;;;;;;8.90;5.53;;;5.60;99.90;;;;;;5460794;26;20247;-68
2024/04/22 04:43:51;;;;;;;8.20;6.20;;;5.60;99.90;;;;;;5455253;26;20535;-67
2024/04/22 04:46:17;;;;;;;6.67;5.97;;;5.60;99.90;;;;;;5467954;26;20251;-68
2024/04/22 04:48:43;;;;;;;6.77;6.07;;;5.50;99.90;;;;;;5470927;26;20728;-68
2024/04/22 04:51:08;;;;;;;6.00;5.07;;;5.50;99.90;;;;;;5468298;26;20286;-68
2024/04/22 04:53:34;;;;;;;7.30;6.10;;;5.50;99.90;;;;;;5477614;26;20605;-68
2024/04/22 04:56:01;;;;;;;8.20;5.53;;;5.50;99.90;;;;;;5458203;26;20228;-67
2024/04/22 04:58:26;;;;;;;8.17;6.27;;;5.50;99.90;;;;;;5466523;26;20258;-68
2024/04/22 05:00:52;;;;;;;9.90;7.03;;;5.50;99.90;;;;;;5463552;26;21141;-68
2024/04/22 05:03:17;;;;;;;7.60;5.63;;;5.50;99.90;;;;;;5461038;26;20271;-68
2024/04/22 05:05:43;;;;;;;7.37;5.50;;;5.50;99.90;;;;;;5458605;26;20239;-68
2024/04/22 05:08:08;;;;;;;7.63;5.37;;;5.50;99.90;;;;;;5468314;26;20632;-68
2024/04/22 05:10:34;;;;;;;8.30;5.80;;;5.50;99.90;;;;;;5464727;26;20235;-68
2024/04/22 05:13:00;;;;;;;7.70;5.70;;;5.50;99.90;;;;;;5466987;26;20223;-68
2024/04/22 05:15:25;;;;;;;9.57;6.40;;;5.40;99.90;;;;;;5467322;26;20278;-68
2024/04/22 05:17:51;;;;;;;9.33;6.10;;;5.40;99.90;;;;;;5476850;26;20298;-68
2024/04/22 05:20:16;;;;;;;10.40;6.30;;;5.40;99.90;;;;;;5465030;26;20632;-68
2024/04/22 05:22:42;;;;;;;6.17;5.20;;;5.40;99.90;;;;;;5464972;26;20259;-68
2024/04/22 05:25:08;;;;;;;7.20;5.93;;;5.50;99.90;;;;;;5462914;26;20228;-69
2024/04/22 05:27:34;;;;;;;6.40;5.20;;;5.40;99.90;;;;;;5469657;26;20464;-68
2024/04/22 05:30:00;;;;;;;7.53;5.50;;;5.40;99.90;;;;;;5461441;26;20345;-68
2024/04/22 05:32:26;;;;;;;6.67;5.00;;;5.50;99.90;;;;;;5460888;26;20905;-69
2024/04/22 05:37:36;;;;;;;7.20;5.57;;;5.50;99.90;;;;;;5464548;26;20515;-68
2024/04/22 05:40:02;;;;;;;7.30;5.80;;;5.50;99.90;;;;;;5467674;26;20814;-68
2024/04/22 05:42:27;;;;;;;7.73;5.57;;;5.50;99.90;;;;;;5470311;26;20307;-68
2024/04/22 05:44:53;;;;;;;8.37;5.77;;;5.50;99.90;;;;;;5461098;26;20290;-68
2024/04/22 05:47:18;;;;;;;13.93;5.90;;;5.50;99.90;;;;;;5458037;26;20247;-68
2024/04/22 05:49:44;;;;;;;6.63;5.83;;;5.50;99.90;;;;;;5463759;26;20341;-66
2024/04/22 05:52:10;;;;;;;9.53;5.53;;;5.50;99.90;;;;;;5472814;26;20246;-67
2024/04/22 05:54:35;;;;;;;7.30;5.53;;;5.60;99.90;;;;;;5471881;26;21130;-67
2024/04/22 05:57:01;;;;;;;6.87;5.80;;;5.60;99.90;;;;;;5467318;26;20310;-67
2024/04/22 05:59:26;;;;;;;9.03;5.10;;;5.60;99.90;;;;;;5460635;26;20278;-67
2024/04/22 06:01:52;;;;;;;6.83;5.63;;;5.60;99.90;;;;;;5460366;26;20658;-67
2024/04/22 06:04:18;;;;;;;6.60;5.30;;;5.60;99.90;;;;;;5470018;26;20242;-67
2024/04/22 06:06:44;;;;;;;8.70;5.50;;;5.70;99.90;;;;;;5463955;26;20251;-67
2024/04/22 06:09:09;;;;;;;10.83;5.57;;;5.70;99.90;;;;;;5462058;26;20238;-67
2024/04/22 06:11:35;;;;;;;7.07;5.80;;;5.70;99.90;;;;;;5461961;26;20527;-67
2024/04/22 06:14:01;;;;;;;7.17;5.83;;;5.70;99.90;;;;;;5470155;26;20323;-67
2024/04/22 06:16:27;;;;;;;5.90;4.70;;;5.70;99.90;;;;;;5465658;26;20472;-66
2024/04/22 06:18:53;;;;;;;6.70;5.20;;;5.70;99.90;;;;;;5472913;26;20238;-67
2024/04/22 06:21:19;;;;;;;5.67;4.60;;;5.80;99.90;;;;;;5471078;26;20901;-67
2024/04/22 06:23:45;;;;;;;8.67;5.87;;;5.80;99.90;;;;;;5470089;26;20469;-67
2024/04/22 06:26:11;;;;;;;6.80;5.30;;;5.90;99.90;;;;;;5456414;26;20589;-67
2024/04/22 06:28:36;;;;;;;7.73;6.03;;;5.90;99.90;;;;;;5473007;26;20230;-67
2024/04/22 06:31:02;;;;;;;6.53;4.60;;;5.90;99.90;;;;;;5467840;26;20297;-67
2024/04/22 06:33:29;;;;;;;6.60;5.40;;;5.90;99.90;;;;;;5460032;26;20266;-67
2024/04/22 06:35:55;;;;;;;11.27;5.20;;;6.00;99.90;;;;;;5450486;26;20671;-67
2024/04/22 06:38:20;;;;;;;5.47;4.87;;;5.90;99.90;;;;;;5468526;26;20535;-67
2024/04/22 06:40:46;;;;;;;9.13;5.73;;;6.00;99.90;;;;;;5464915;26;20246;-67
2024/04/22 06:43:12;;;;;;;6.57;4.70;;;6.00;99.90;;;;;;5463198;26;20235;-67
2024/04/22 06:45:38;;;;;;;6.77;5.20;;;6.10;99.90;;;;;;5462039;26;20333;-68
2024/04/22 06:48:05;;;;;;;6.00;5.00;;;6.10;99.90;;;;;;5474911;26;20235;-67
2024/04/22 06:50:30;;;;;;;7.23;4.90;;;6.20;99.90;;;;;;5456533;26;20473;-66
2024/04/22 06:52:56;;;;;;;6.87;5.73;;;6.20;99.90;;;;;;5456469;26;20465;-67
2024/04/22 06:55:22;;;;;;;6.80;5.07;;;6.30;99.90;;;;;;5463215;26;20236;-68
2024/04/22 06:57:47;;;;;;;5.70;5.10;;;6.30;99.90;;;;;;5456599;26;20230;-67
2024/04/22 07:00:13;;;;;;;6.33;4.77;;;6.30;99.90;;;;;;5453647;26;20475;-67
2024/04/22 07:02:39;;;;;;;4.80;4.30;;;6.40;99.90;;;;;;5465399;26;20311;-68
2024/04/22 07:05:04;;;;;;;9.63;5.30;;;6.40;99.90;;;;;;5465522;26;20263;-68
2024/04/22 07:07:31;;;;;;;6.90;5.10;;;6.50;99.90;;;;;;5469079;26;20243;-68
2024/04/22 07:09:57;;;;;;;5.90;5.27;;;6.50;99.90;;;;;;5458445;26;21013;-70
2024/04/22 07:12:23;;;;;;;5.30;4.33;;;6.60;99.90;;;;;;5461100;26;20473;-68
2024/04/22 07:14:48;;;;;;;5.77;4.67;;;6.70;99.90;;;;;;5464219;26;20235;-69
2024/04/22 07:17:14;;;;;;;8.30;5.57;;;6.70;99.90;;;;;;5455155;26;20408;-69
2024/04/22 07:19:40;;;;;;;6.33;5.00;;;6.80;99.90;;;;;;5465494;26;20282;-69
2024/04/22 07:22:05;;;;;;;6.93;5.10;;;6.80;99.90;;;;;;5467763;26;20662;-68
2024/04/22 07:24:31;;;;;;;7.87;4.53;;;6.90;99.90;;;;;;5459682;26;20767;-69
2024/04/22 07:26:56;;;;;;;5.50;4.40;;;7.00;99.90;;;;;;5468173;26;20285;-70
2024/04/22 07:29:23;;;;;;;5.73;4.70;;;7.00;99.90;;;;;;5464754;26;20308;-68
2024/04/22 07:31:48;;;;;;;5.50;5.00;;;7.10;99.90;;;;;;5465589;26;20726;-69
2024/04/22 07:34:14;;;;;;;6.00;5.03;;;7.10;99.90;;;;;;5465866;26;20526;-69
2024/04/22 07:36:45;;;;;;;4.63;4.03;;;7.20;99.90;;;;;;5467283;26;20284;-66
2024/04/22 07:39:14;;;;;;;5.87;4.43;;;7.20;99.90;;;;;;5450305;26;20482;-67
2024/04/22 07:41:40;;;;;;;5.43;4.63;;;7.30;99.90;;;;;;5465834;26;20550;-68
2024/04/22 07:44:05;;;;;;;5.33;4.20;;;7.30;99.90;;;;;;5459992;26;20495;-68
2024/04/22 07:46:32;;;;;;;16.23;11.10;;;7.40;99.90;;;;;;5470932;26;20464;-68
2024/04/22 07:48:58;;;;;;;9.63;6.73;;;7.40;99.90;;;;;;5465287;26;20235;-68
2024/04/22 07:51:24;;;;;;;8.23;6.50;;;7.50;99.90;;;;;;5458450;26;20492;-67
2024/04/22 07:53:50;;;;;;;5.80;4.73;;;7.60;99.90;;;;;;5464105;26;20530;-68
2024/04/22 07:56:17;;;;;;;7.10;5.17;;;7.60;99.90;;;;;;5458666;26;20278;-67
2024/04/22 07:58:44;;;;;;;7.50;4.60;;;7.70;99.90;;;;;;5464879;26;20710;-67
2024/04/22 08:01:12;;;;;;;6.37;4.20;;;7.80;99.90;;;;;;5454986;26;20622;-67
2024/04/22 08:03:38;;;;;;;6.90;4.13;;;7.80;99.90;;;;;;5463317;26;20468;-68
2024/04/22 08:06:08;;;;;;;4.87;4.00;;;7.90;99.90;;;;;;5458153;26;20536;-68
2024/04/22 08:08:35;;;;;;;4.93;3.80;;;7.90;99.90;;;;;;5462373;26;20239;-66
2024/04/22 08:11:01;;;;;;;4.27;3.87;;;8.00;99.90;;;;;;5469020;26;20971;-67
2024/04/22 08:13:26;;;;;;;4.77;4.27;;;8.10;99.90;;;;;;5462821;26;20506;-68
2024/04/22 08:15:52;;;;;;;6.60;4.20;;;8.10;99.90;;;;;;5460182;26;20231;-68
2024/04/22 08:18:18;;;;;;;5.30;4.60;;;8.20;99.90;;;;;;5462577;26;20248;-68
2024/04/22 08:20:43;;;;;;;5.83;4.47;;;8.30;99.90;;;;;;5461725;26;20271;-68
2024/04/22 08:23:09;;;;;;;5.03;4.53;;;8.30;99.90;;;;;;5460027;26;20224;-67
2024/04/22 08:25:34;;;;;;;6.50;4.50;;;8.40;99.90;;;;;;5460703;26;20796;-67
2024/04/22 08:28:01;;;;;;;5.60;4.40;;;8.40;99.90;;;;;;5458078;26;20277;-68
2024/04/22 08:30:29;;;;;;;4.70;4.30;;;8.50;99.90;;;;;;5458513;26;20306;-68
2024/04/22 08:32:55;;;;;;;5.83;4.37;;;8.60;99.90;;;;;;5453249;26;20483;-67
2024/04/22 08:35:21;;;;;;;7.00;4.50;;;8.60;99.90;;;;;;5462583;26;21076;-67
2024/04/22 08:37:47;;;;;;;5.83;4.27;;;8.70;99.90;;;;;;5458595;26;20351;-67
2024/04/22 08:40:13;;;;;;;5.50;4.00;;;8.80;99.90;;;;;;5458768;26;20230;-67
2024/04/22 08:42:40;;;;;;;6.20;4.67;;;8.80;99.90;;;;;;5462697;26;20460;-67
2024/04/22 08:45:06;;;;;;;4.87;4.17;;;8.90;99.90;;;;;;5461260;26;20870;-68
2024/04/22 08:47:33;;;;;;;4.77;4.30;;;9.00;99.90;;;;;;5463681;26;21360;-68
2024/04/22 08:49:59;;;;;;;6.20;4.70;;;9.10;99.90;;;;;;5456745;26;20518;-68
2024/04/22 08:52:25;;;;;;;5.17;4.30;;;9.20;99.90;;;;;;5461576;26;20551;-68
2024/04/22 08:54:51;;;;;;;4.97;4.47;;;9.30;99.90;;;;;;5453684;26;20529;-68
2024/04/22 08:57:17;;;;;;;5.70;4.20;;;9.50;99.90;;;;;;5446755;26;21014;-68
2024/04/22 08:59:43;;;;;;;6.97;4.60;;;9.60;99.90;;;;;;5454258;26;20721;-68
2024/04/22 09:02:11;;;;;;;4.77;3.90;;;9.80;99.90;;;;;;5458798;26;20476;-68
2024/04/22 09:04:37;;;;;;;4.60;4.20;;;10.00;99.90;;;;;;5463056;26;21036;-68
2024/04/22 09:07:07;;;;;;;6.30;4.70;;;10.10;99.90;;;;;;5458435;26;20453;-68
2024/04/22 09:09:32;;;;;;;5.00;4.30;;;10.30;99.90;;;;;;5464680;26;20230;-68
2024/04/22 09:11:58;;;;;;;7.47;4.40;;;10.60;99.90;;;;;;5459811;26;21090;-68
2024/04/22 09:14:25;;;;;;;4.87;4.20;;;10.90;99.90;;;;;;5464656;26;20344;-68
2024/04/22 09:16:51;;;;;;;4.03;3.57;;;11.00;99.90;;;;;;5458333;26;20268;-68
2024/04/22 09:19:21;;;;;;;5.30;3.93;;;11.30;99.90;;;;;;5467580;26;20455;-68
2024/04/22 09:21:46;;;;;;;6.70;4.63;;;11.50;99.90;;;;;;5461661;26;20487;-68
2024/04/22 09:24:12;;;;;;;4.70;4.20;;;11.60;99.90;;;;;;5466560;26;20521;-68
2024/04/22 09:26:38;;;;;;;6.60;4.00;;;11.80;99.90;;;;;;5461147;26;20247;-68
2024/04/22 09:29:07;;;;;;;4.10;3.70;;;11.90;99.90;;;;;;5470998;26;20247;-68
2024/04/22 09:31:38;;;;;;;4.20;3.80;;;12.00;99.90;;;;;;5460117;25;20456;-67
2024/04/22 09:34:05;;;;;;;4.13;3.73;;;12.10;99.90;;;;;;5457059;26;20849;-68
2024/04/22 09:36:31;;;;;;;5.60;4.40;;;12.20;99.90;;;;;;5457972;26;20513;-67
2024/04/22 09:38:58;;;;;;;5.07;3.87;;;12.20;99.90;;;;;;5468789;26;20468;-67
2024/04/22 09:41:25;;;;;;;4.20;3.80;;;12.20;99.90;;;;;;5461811;26;21013;-67
2024/04/22 09:43:53;;;;;;;5.47;3.90;;;12.20;99.90;;;;;;5465876;26;20820;-67
2024/04/22 09:46:19;;;;;;;4.63;4.00;;;12.30;99.90;;;;;;5460822;26;20798;-67
2024/04/22 09:48:46;;;;;;;5.70;4.07;;;12.40;99.90;;;;;;5463436;26;20522;-67
2024/04/22 09:51:12;;;;;;;4.30;3.80;;;12.40;99.90;;;;;;5457731;26;20509;-67
2024/04/22 09:53:40;;;;;;;3.70;3.40;;;12.50;99.90;;;;;;5460164;26;20829;-67
2024/04/22 09:56:09;;;;;;;4.03;3.63;;;12.50;99.90;;;;;;5456101;26;20278;-68
2024/04/22 09:58:37;;;;;;;4.37;3.97;;;12.60;99.90;;;;;;5466276;26;20531;-67
2024/04/22 10:01:03;;;;;;;4.13;3.73;;;12.70;99.90;;;;;;5454886;26;20483;-67
2024/04/22 10:03:29;;;;;;;4.37;3.97;;;12.70;99.90;;;;;;5458756;26;20916;-67
2024/04/22 10:05:56;;;;;;;5.00;3.47;;;12.90;99.90;;;;;;5461774;26;20513;-68
2024/04/22 10:08:22;;;;;;;5.53;4.10;;;13.00;99.80;;;;;;5458348;26;20599;-67
2024/04/22 10:10:48;;;;;;;4.93;3.60;;;13.00;99.70;;;;;;5455012;26;20559;-67
2024/04/22 10:13:14;;;;;;;4.53;2.97;;;13.10;99.20;;;;;;5468426;26;20265;-68
2024/04/22 10:15:40;;;;;;;4.20;3.80;;;13.20;98.90;;;;;;5467868;26;20507;-68
2024/04/22 10:18:14;;;;;;;3.43;3.13;;;13.30;98.40;;;;;;5463676;26;20615;-68
2024/04/22 10:20:41;;;;;;;3.70;3.33;;;13.40;98.30;;;;;;5461211;26;20914;-68
2024/04/22 10:23:08;;;;;;;7.47;3.10;;;13.50;97.80;;;;;;5464413;26;20472;-68
2024/04/22 10:25:33;;;;;;;4.60;3.30;;;13.40;96.80;;;;;;5464939;26;21218;-68
2024/04/22 10:27:59;;;;;;;3.80;3.27;;;13.40;96.20;;;;;;5456653;26;20573;-67
2024/04/22 10:30:36;;;;;;;4.50;3.90;;;13.20;95.30;;;;;;5465542;26;20220;-67
2024/04/22 10:33:02;;;;;;;4.20;3.80;;;13.10;95.50;;;;;;5457567;26;20234;-67
2024/04/22 10:35:32;;;;;;;5.33;4.83;;;12.90;95.20;;;;;;5467391;25;20464;-68
2024/04/22 10:37:58;;;;;;;4.47;3.93;;;12.80;95.60;;;;;;5461312;26;20464;-68
2024/04/22 10:40:24;;;;;;;5.60;3.80;;;12.80;96.00;;;;;;5462420;26;20530;-68
2024/04/22 10:42:50;;;;;;;3.70;3.40;;;12.80;95.90;;;;;;5464547;26;21012;-68
2024/04/22 10:45:16;;;;;;;4.10;3.70;;;12.70;95.20;;;;;;5456547;26;20579;-68
2024/04/22 10:47:41;;;;;;;4.67;4.27;;;12.80;95.80;;;;;;5464222;26;20318;-69
2024/04/22 10:50:18;;;;;;;6.73;4.10;;;12.90;95.20;;;;;;5461755;26;20235;-68
2024/04/22 10:52:43;;;;;;;5.00;4.27;;;13.00;94.50;;;;;;5459514;26;20244;-68
2024/04/22 10:55:10;;;;;;;6.03;5.07;;;12.90;94.80;;;;;;5463984;26;21007;-68
2024/04/22 10:57:36;;;;;;;4.40;4.00;;;12.70;94.50;;;;;;5460488;26;20227;-68
2024/04/22 11:00:03;;;;;;;3.27;2.97;;;12.50;95.00;;;;;;5470574;26;20464;-68
2024/04/22 11:02:29;;;;;;;4.43;3.73;;;12.30;94.00;;;;;;5467557;25;22949;-68
2024/04/22 11:04:55;;;;;;;4.07;2.97;;;12.20;94.10;;;;;;5463967;26;20520;-68
2024/04/22 11:07:23;;;;;;;3.37;2.93;;;12.10;93.60;;;;;;5463119;26;20774;-68
2024/04/22 11:09:50;;;;;;;3.80;3.23;;;12.00;94.10;;;;;;5476879;26;20616;-68
2024/04/22 11:12:17;;;;;;;3.77;3.30;;;12.00;94.40;;;;;;5462581;26;21247;-69
2024/04/22 11:14:43;;;;;;;4.37;3.60;;;11.90;94.70;;;;;;5455555;26;20479;-68
2024/04/22 11:17:10;;;;;;;3.10;2.80;;;12.00;94.60;;;;;;5461557;26;20532;-68
2024/04/22 11:19:35;;;;;;;4.00;3.17;;;12.00;94.30;;;;;;5461868;26;20456;-68
2024/04/22 11:22:01;;;;;;;2.90;2.60;;;12.00;94.60;;;;;;5466243;26;20589;-68
2024/04/22 11:24:27;;;;;;;4.00;3.60;;;12.10;94.60;;;;;;5467611;26;20227;-68
2024/04/22 11:26:53;;;;;;;3.70;2.97;;;12.20;94.70;;;;;;5460472;26;20512;-68
2024/04/22 11:29:19;;;;;;;3.60;3.07;;;12.20;94.30;;;;;;5467051;26;20467;-69
2024/04/22 11:31:45;;;;;;;3.00;2.63;;;12.30;93.60;;;;;;5466977;26;20383;-68
2024/04/22 11:34:10;;;;;;;3.13;2.80;;;12.40;93.00;;;;;;5458049;26;20927;-68
2024/04/22 11:36:36;;;;;;;3.23;2.93;;;12.40;92.50;;;;;;5458496;26;20882;-68
2024/04/22 11:39:14;;;;;;;3.13;2.83;;;12.40;92.20;;;;;;5467161;26;20263;-68
2024/04/22 11:41:39;;;;;;;3.27;2.80;;;12.40;92.30;;;;;;5457374;26;20836;-69
2024/04/22 11:44:05;;;;;;;3.53;2.77;;;12.50;92.20;;;;;;5454314;26;20520;-69
2024/04/22 11:46:31;;;;;;;3.70;2.90;;;12.60;92.00;;;;;;5464102;26;20354;-69
2024/04/22 11:48:56;;;;;;;3.20;2.67;;;12.80;92.20;;;;;;5468989;26;20255;-69
2024/04/22 11:51:22;;;;;;;3.90;3.50;;;13.10;91.50;;;;;;5464179;26;20824;-68
2024/04/22 11:53:47;;;;;;;3.40;3.10;;;13.30;90.30;;;;;;5464588;26;20726;-67
2024/04/22 11:56:13;;;;;;;3.97;3.57;;;13.40;90.30;;;;;;5469081;26;20331;-69
2024/04/22 11:58:38;;;;;;;3.83;3.53;;;13.70;90.20;;;;;;5460571;26;20311;-67
2024/04/22 12:01:04;;;;;;;4.87;3.40;;;14.00;89.10;;;;;;5460133;26;20876;-67
2024/04/22 12:03:30;;;;;;;3.50;3.20;;;14.10;86.00;;;;;;5457479;26;20272;-67
2024/04/22 12:05:55;;;;;;;4.93;3.30;;;14.30;86.30;;;;;;5466836;26;20251;-67
2024/04/22 12:08:21;;;;;;;4.40;3.90;;;14.50;85.60;;;;;;5465775;26;20594;-67
2024/04/22 12:10:47;;;;;;;3.57;3.27;;;14.70;85.40;;;;;;5461225;26;20235;-68
2024/04/22 12:13:13;;;;;;;4.30;3.90;;;14.90;85.40;;;;;;5460082;26;20348;-68
2024/04/22 12:15:39;;;;;;;5.10;3.57;;;15.50;86.40;;;;;;5456794;26;21126;-67
2024/04/22 12:18:04;;;;;;;3.50;3.20;;;16.20;85.50;;;;;;5456583;26;20240;-67
2024/04/22 12:20:30;;;;;;;3.40;3.10;;;16.60;81.70;;;;;;5461293;26;20625;-67
2024/04/22 12:22:56;;;;;;;3.63;2.80;;;17.00;78.40;;;;;;5471261;26;20274;-67
2024/04/22 12:25:22;;;;;;;3.63;3.30;;;17.10;77.20;;;;;;5466979;26;20227;-67
2024/04/22 12:27:47;;;;;;;3.60;2.87;;;17.90;77.20;;;;;;5465976;26;20348;-67
2024/04/22 12:30:13;;;;;;;4.07;3.13;;;19.30;75.40;;;;;;5474209;26;20235;-67
2024/04/22 12:32:39;;;;;;;4.00;3.60;;;20.30;71.20;;;;;;5467785;26;20231;-65
2024/04/22 12:35:05;;;;;;;4.63;3.53;;;21.40;66.70;;;;;;5467231;26;20227;-66
2024/04/22 12:37:31;;;;;;;3.90;3.50;;;22.80;64.30;;;;;;5464522;26;20231;-65
2024/04/22 12:39:56;;;;;;;4.33;3.37;;;23.70;60.20;;;;;;5468431;26;20588;-67
2024/04/22 12:42:22;;;;;;;4.47;3.30;;;23.90;55.60;;;;;;5466766;26;21004;-67
2024/04/22 12:44:48;;;;;;;4.07;3.67;;;23.20;52.70;;;;;;5462549;26;21347;-66
2024/04/22 12:52:42;;;;;;;4.90;3.50;;;20.60;50.90;;;;;;5472780;26;20585;-67
2024/04/22 12:55:07;;;;;;;3.60;3.30;;;20.10;52.10;;;;;;5472104;26;20484;-67
2024/04/22 12:57:33;;;;;;;4.00;3.50;;;19.70;52.60;;;;;;5465404;26;20976;-67